sensor_id;sensor_type;location;lat;lon;timestamp;P1;durP1;ratioP1;P2;durP2;ratioP2
10052;SDS011;52418;53.134;8.236;2022-07-29T00:00:08;1.10;;;1.10;;
10052;SDS011;52418;53.134;8.236;2022-07-29T00:02:33;1.10;;;1.10;;
10052;SDS011;52418;53.134;8.236;2022-07-29T00:04:58;1.10;;;1.10;;
10052;SDS011;52418;53.134;8.236;2022-07-29T00:07:24;1.10;;;1.10;;
10052;SDS011;52418;53.134;8.236;2022-07-29T00:09:49;1.10;;;1.10;;
10052;SDS011;52418;53.134;8.236;2022-07-29T00:12:15;1.10;;;1.10;;
10052;SDS011;52418;53.134;8.236;2022-07-29T00:14:40;1.00;;;1.00;;
10052;SDS011;52418;53.134;8.236;2022-07-29T00:17:05;1.10;;;1.10;;
10052;SDS011;52418;53.134;8.236;2022-07-29T00:19:30;1.10;;;1.10;;
10052;SDS011;52418;53.134;8.236;2022-07-29T00:21:55;1.10;;;1.10;;
10052;SDS011;52418;53.134;8.236;2022-07-29T00:24:20;1.10;;;1.10;;
10052;SDS011;52418;53.134;8.236;2022-07-29T00:26:45;1.10;;;1.10;;
10052;SDS011;52418;53.134;8.236;2022-07-29T00:29:11;1.10;;;1.10;;
10052;SDS011;52418;53.134;8.236;2022-07-29T00:31:36;1.00;;;1.00;;
10052;SDS011;52418;53.134;8.236;2022-07-29T00:34:02;1.03;;;1.03;;
10052;SDS011;52418;53.134;8.236;2022-07-29T00:36:27;1.10;;;1.10;;
10052;SDS011;52418;53.134;8.236;2022-07-29T00:38:53;1.17;;;1.17;;
10052;SDS011;52418;53.134;8.236;2022-07-29T00:41:18;1.10;;;1.10;;
10052;SDS011;52418;53.134;8.236;2022-07-29T00:43:43;1.07;;;1.07;;
10052;SDS011;52418;53.134;8.236;2022-07-29T00:46:09;1.10;;;1.10;;
10052;SDS011;52418;53.134;8.236;2022-07-29T00:48:34;1.10;;;1.10;;
10052;SDS011;52418;53.134;8.236;2022-07-29T00:50:59;1.10;;;1.10;;
10052;SDS011;52418;53.134;8.236;2022-07-29T00:53:25;1.10;;;1.10;;
10052;SDS011;52418;53.134;8.236;2022-07-29T00:55:50;1.10;;;1.10;;
10052;SDS011;52418;53.134;8.236;2022-07-29T00:58:15;1.10;;;1.10;;
10052;SDS011;52418;53.134;8.236;2022-07-29T01:00:40;1.10;;;1.10;;
10052;SDS011;52418;53.134;8.236;2022-07-29T01:03:06;1.00;;;1.00;;
10052;SDS011;52418;53.134;8.236;2022-07-29T01:05:31;1.07;;;1.07;;
10052;SDS011;52418;53.134;8.236;2022-07-29T01:07:57;0.97;;;0.97;;
10052;SDS011;52418;53.134;8.236;2022-07-29T01:10:23;1.00;;;1.00;;
10052;SDS011;52418;53.134;8.236;2022-07-29T01:12:48;1.10;;;1.10;;
10052;SDS011;52418;53.134;8.236;2022-07-29T01:15:14;1.07;;;1.07;;
10052;SDS011;52418;53.134;8.236;2022-07-29T01:17:44;1.10;;;1.10;;
10052;SDS011;52418;53.134;8.236;2022-07-29T01:25:44;1.07;;;1.07;;
10052;SDS011;52418;53.134;8.236;2022-07-29T01:28:17;0.97;;;0.97;;
10052;SDS011;52418;53.134;8.236;2022-07-29T01:30:47;0.90;;;0.90;;
10052;SDS011;52418;53.134;8.236;2022-07-29T01:33:15;1.00;;;1.00;;
10052;SDS011;52418;53.134;8.236;2022-07-29T01:36:01;0.90;;;0.90;;
10052;SDS011;52418;53.134;8.236;2022-07-29T01:38:30;1.00;;;1.00;;
10052;SDS011;52418;53.134;8.236;2022-07-29T01:41:02;1.00;;;1.00;;
10052;SDS011;52418;53.134;8.236;2022-07-29T01:43:33;1.00;;;1.00;;
10052;SDS011;52418;53.134;8.236;2022-07-29T01:46:01;1.00;;;1.00;;
10052;SDS011;52418;53.134;8.236;2022-07-29T01:48:29;1.00;;;1.00;;
10052;SDS011;52418;53.134;8.236;2022-07-29T01:51:07;1.00;;;1.00;;
10052;SDS011;52418;53.134;8.236;2022-07-29T01:53:47;1.00;;;1.00;;
10052;SDS011;52418;53.134;8.236;2022-07-29T01:56:13;1.00;;;1.00;;
10052;SDS011;52418;53.134;8.236;2022-07-29T01:58:40;1.00;;;1.00;;
10052;SDS011;52418;53.134;8.236;2022-07-29T02:01:06;1.00;;;1.00;;
10052;SDS011;52418;53.134;8.236;2022-07-29T02:03:33;1.00;;;1.00;;
10052;SDS011;52418;53.134;8.236;2022-07-29T02:06:00;1.00;;;1.00;;
10052;SDS011;52418;53.134;8.236;2022-07-29T02:08:26;1.00;;;1.00;;
10052;SDS011;52418;53.134;8.236;2022-07-29T02:10:53;1.00;;;1.00;;
10052;SDS011;52418;53.134;8.236;2022-07-29T02:13:19;0.90;;;0.90;;
10052;SDS011;52418;53.134;8.236;2022-07-29T02:15:45;0.90;;;0.90;;
10052;SDS011;52418;53.134;8.236;2022-07-29T02:18:13;1.00;;;1.00;;
10052;SDS011;52418;53.134;8.236;2022-07-29T02:20:39;0.97;;;0.97;;
10052;SDS011;52418;53.134;8.236;2022-07-29T02:23:05;1.00;;;1.00;;
10052;SDS011;52418;53.134;8.236;2022-07-29T02:25:31;1.00;;;1.00;;
10052;SDS011;52418;53.134;8.236;2022-07-29T02:27:56;1.00;;;1.00;;
10052;SDS011;52418;53.134;8.236;2022-07-29T02:30:23;1.00;;;1.00;;
10052;SDS011;52418;53.134;8.236;2022-07-29T02:32:50;1.00;;;1.00;;
10052;SDS011;52418;53.134;8.236;2022-07-29T02:35:16;1.00;;;1.00;;
10052;SDS011;52418;53.134;8.236;2022-07-29T02:37:43;1.00;;;1.00;;
10052;SDS011;52418;53.134;8.236;2022-07-29T02:40:11;1.00;;;1.00;;
10052;SDS011;52418;53.134;8.236;2022-07-29T02:42:37;1.03;;;1.03;;
10052;SDS011;52418;53.134;8.236;2022-07-29T02:45:04;1.00;;;1.00;;
10052;SDS011;52418;53.134;8.236;2022-07-29T02:47:42;1.03;;;1.03;;
10052;SDS011;52418;53.134;8.236;2022-07-29T02:50:12;1.00;;;1.00;;
10052;SDS011;52418;53.134;8.236;2022-07-29T02:53:12;1.00;;;1.00;;
10052;SDS011;52418;53.134;8.236;2022-07-29T02:55:34;1.00;;;1.00;;
10052;SDS011;52418;53.134;8.236;2022-07-29T02:58:01;1.00;;;1.00;;
10052;SDS011;52418;53.134;8.236;2022-07-29T03:00:27;1.07;;;1.07;;
10052;SDS011;52418;53.134;8.236;2022-07-29T03:02:53;1.10;;;1.10;;
10052;SDS011;52418;53.134;8.236;2022-07-29T03:05:20;1.00;;;1.00;;
10052;SDS011;52418;53.134;8.236;2022-07-29T03:07:46;1.00;;;1.00;;
10052;SDS011;52418;53.134;8.236;2022-07-29T03:10:12;1.00;;;1.00;;
10052;SDS011;52418;53.134;8.236;2022-07-29T03:12:37;1.00;;;1.00;;
10052;SDS011;52418;53.134;8.236;2022-07-29T03:15:03;1.10;;;1.10;;
10052;SDS011;52418;53.134;8.236;2022-07-29T03:17:29;1.00;;;1.00;;
10052;SDS011;52418;53.134;8.236;2022-07-29T03:19:55;1.00;;;1.00;;
10052;SDS011;52418;53.134;8.236;2022-07-29T03:22:20;1.10;;;1.10;;
10052;SDS011;52418;53.134;8.236;2022-07-29T03:24:45;1.10;;;1.10;;
10052;SDS011;52418;53.134;8.236;2022-07-29T03:27:11;1.00;;;1.00;;
10052;SDS011;52418;53.134;8.236;2022-07-29T03:29:36;1.00;;;1.00;;
10052;SDS011;52418;53.134;8.236;2022-07-29T03:32:02;1.10;;;1.10;;
10052;SDS011;52418;53.134;8.236;2022-07-29T03:34:27;1.10;;;1.10;;
10052;SDS011;52418;53.134;8.236;2022-07-29T03:36:52;1.10;;;1.10;;
10052;SDS011;52418;53.134;8.236;2022-07-29T03:39:19;1.10;;;1.10;;
10052;SDS011;52418;53.134;8.236;2022-07-29T03:41:45;1.00;;;1.00;;
10052;SDS011;52418;53.134;8.236;2022-07-29T03:44:12;1.00;;;1.00;;
10052;SDS011;52418;53.134;8.236;2022-07-29T03:46:38;1.00;;;1.00;;
10052;SDS011;52418;53.134;8.236;2022-07-29T03:49:03;1.10;;;1.10;;
10052;SDS011;52418;53.134;8.236;2022-07-29T03:51:29;1.10;;;1.10;;
10052;SDS011;52418;53.134;8.236;2022-07-29T03:53:55;1.07;;;1.07;;
10052;SDS011;52418;53.134;8.236;2022-07-29T03:56:20;1.03;;;1.03;;
10052;SDS011;52418;53.134;8.236;2022-07-29T03:58:46;1.00;;;1.00;;
10052;SDS011;52418;53.134;8.236;2022-07-29T04:01:11;1.10;;;1.10;;
10052;SDS011;52418;53.134;8.236;2022-07-29T04:03:37;1.00;;;1.00;;
10052;SDS011;52418;53.134;8.236;2022-07-29T04:06:04;1.10;;;1.10;;
10052;SDS011;52418;53.134;8.236;2022-07-29T04:08:33;1.10;;;1.10;;
10052;SDS011;52418;53.134;8.236;2022-07-29T04:10:59;1.10;;;1.10;;
10052;SDS011;52418;53.134;8.236;2022-07-29T04:13:24;1.10;;;1.10;;
10052;SDS011;52418;53.134;8.236;2022-07-29T04:15:49;1.00;;;1.00;;
10052;SDS011;52418;53.134;8.236;2022-07-29T04:18:15;1.00;;;1.00;;
10052;SDS011;52418;53.134;8.236;2022-07-29T04:20:40;1.00;;;1.00;;
10052;SDS011;52418;53.134;8.236;2022-07-29T04:23:05;1.00;;;1.00;;
10052;SDS011;52418;53.134;8.236;2022-07-29T04:25:30;0.90;;;0.90;;
10052;SDS011;52418;53.134;8.236;2022-07-29T04:27:56;0.90;;;0.90;;
10052;SDS011;52418;53.134;8.236;2022-07-29T04:30:27;1.00;;;1.00;;
10052;SDS011;52418;53.134;8.236;2022-07-29T04:32:53;1.00;;;1.00;;
10052;SDS011;52418;53.134;8.236;2022-07-29T04:35:18;1.00;;;1.00;;
10052;SDS011;52418;53.134;8.236;2022-07-29T04:37:43;1.00;;;1.00;;
10052;SDS011;52418;53.134;8.236;2022-07-29T04:40:09;0.93;;;0.93;;
10052;SDS011;52418;53.134;8.236;2022-07-29T04:42:34;1.00;;;1.00;;
10052;SDS011;52418;53.134;8.236;2022-07-29T04:44:59;0.90;;;0.90;;
10052;SDS011;52418;53.134;8.236;2022-07-29T04:47:24;1.00;;;1.00;;
10052;SDS011;52418;53.134;8.236;2022-07-29T04:49:50;0.97;;;0.97;;
10052;SDS011;52418;53.134;8.236;2022-07-29T04:52:15;1.00;;;1.00;;
10052;SDS011;52418;53.134;8.236;2022-07-29T04:54:40;0.90;;;0.90;;
10052;SDS011;52418;53.134;8.236;2022-07-29T04:57:05;1.00;;;1.00;;
10052;SDS011;52418;53.134;8.236;2022-07-29T04:59:30;1.00;;;1.00;;
10052;SDS011;52418;53.134;8.236;2022-07-29T05:01:55;1.00;;;1.00;;
10052;SDS011;52418;53.134;8.236;2022-07-29T05:04:20;1.00;;;1.00;;
10052;SDS011;52418;53.134;8.236;2022-07-29T05:06:46;1.00;;;1.00;;
10052;SDS011;52418;53.134;8.236;2022-07-29T05:09:11;1.00;;;1.00;;
10052;SDS011;52418;53.134;8.236;2022-07-29T05:11:36;1.00;;;1.00;;
10052;SDS011;52418;53.134;8.236;2022-07-29T05:14:01;1.07;;;1.07;;
10052;SDS011;52418;53.134;8.236;2022-07-29T05:16:26;1.10;;;1.10;;
10052;SDS011;52418;53.134;8.236;2022-07-29T05:18:52;1.00;;;1.00;;
10052;SDS011;52418;53.134;8.236;2022-07-29T05:21:17;1.10;;;1.10;;
10052;SDS011;52418;53.134;8.236;2022-07-29T05:23:42;1.00;;;1.00;;
10052;SDS011;52418;53.134;8.236;2022-07-29T05:26:07;1.10;;;1.10;;
10052;SDS011;52418;53.134;8.236;2022-07-29T05:28:33;1.00;;;1.00;;
10052;SDS011;52418;53.134;8.236;2022-07-29T05:30:58;1.00;;;1.00;;
10052;SDS011;52418;53.134;8.236;2022-07-29T05:33:23;1.10;;;1.10;;
10052;SDS011;52418;53.134;8.236;2022-07-29T05:35:49;1.07;;;1.07;;
10052;SDS011;52418;53.134;8.236;2022-07-29T05:38:14;1.13;;;1.13;;
10052;SDS011;52418;53.134;8.236;2022-07-29T05:40:39;1.10;;;1.10;;
10052;SDS011;52418;53.134;8.236;2022-07-29T05:43:04;1.10;;;1.10;;
10052;SDS011;52418;53.134;8.236;2022-07-29T05:45:29;1.00;;;1.00;;
10052;SDS011;52418;53.134;8.236;2022-07-29T05:47:56;1.10;;;1.10;;
10052;SDS011;52418;53.134;8.236;2022-07-29T05:50:22;1.00;;;1.00;;
10052;SDS011;52418;53.134;8.236;2022-07-29T05:52:47;1.10;;;1.10;;
10052;SDS011;52418;53.134;8.236;2022-07-29T05:55:12;1.20;;;1.20;;
10052;SDS011;52418;53.134;8.236;2022-07-29T05:57:37;1.13;;;1.13;;
10052;SDS011;52418;53.134;8.236;2022-07-29T06:00:02;1.10;;;1.10;;
10052;SDS011;52418;53.134;8.236;2022-07-29T06:02:29;1.10;;;1.10;;
10052;SDS011;52418;53.134;8.236;2022-07-29T06:04:54;1.03;;;1.03;;
10052;SDS011;52418;53.134;8.236;2022-07-29T06:07:19;1.10;;;1.10;;
10052;SDS011;52418;53.134;8.236;2022-07-29T06:09:45;1.10;;;1.10;;
10052;SDS011;52418;53.134;8.236;2022-07-29T06:12:10;1.10;;;1.10;;
10052;SDS011;52418;53.134;8.236;2022-07-29T06:14:35;1.10;;;1.10;;
10052;SDS011;52418;53.134;8.236;2022-07-29T06:17:00;1.10;;;1.10;;
10052;SDS011;52418;53.134;8.236;2022-07-29T06:19:26;1.00;;;1.00;;
10052;SDS011;52418;53.134;8.236;2022-07-29T06:21:51;1.00;;;1.00;;
10052;SDS011;52418;53.134;8.236;2022-07-29T06:24:16;1.00;;;1.00;;
10052;SDS011;52418;53.134;8.236;2022-07-29T06:26:42;1.00;;;1.00;;
10052;SDS011;52418;53.134;8.236;2022-07-29T06:29:07;1.00;;;1.00;;
10052;SDS011;52418;53.134;8.236;2022-07-29T06:31:33;1.10;;;1.10;;
10052;SDS011;52418;53.134;8.236;2022-07-29T06:33:58;1.10;;;1.10;;
10052;SDS011;52418;53.134;8.236;2022-07-29T06:36:23;1.00;;;1.00;;
10052;SDS011;52418;53.134;8.236;2022-07-29T06:38:49;1.00;;;1.00;;
10052;SDS011;52418;53.134;8.236;2022-07-29T06:41:14;1.00;;;1.00;;
10052;SDS011;52418;53.134;8.236;2022-07-29T06:43:41;1.10;;;1.10;;
10052;SDS011;52418;53.134;8.236;2022-07-29T06:46:07;1.00;;;1.00;;
10052;SDS011;52418;53.134;8.236;2022-07-29T06:48:34;1.00;;;1.00;;
10052;SDS011;52418;53.134;8.236;2022-07-29T06:50:59;1.00;;;1.00;;
10052;SDS011;52418;53.134;8.236;2022-07-29T06:53:25;1.00;;;1.00;;
10052;SDS011;52418;53.134;8.236;2022-07-29T06:55:51;1.02;;;1.02;;
10052;SDS011;52418;53.134;8.236;2022-07-29T06:58:16;1.10;;;1.10;;
10052;SDS011;52418;53.134;8.236;2022-07-29T07:00:43;1.00;;;1.00;;
10052;SDS011;52418;53.134;8.236;2022-07-29T07:03:08;1.20;;;1.20;;
10052;SDS011;52418;53.134;8.236;2022-07-29T07:05:33;1.08;;;1.08;;
10052;SDS011;52418;53.134;8.236;2022-07-29T07:07:58;1.10;;;1.10;;
10052;SDS011;52418;53.134;8.236;2022-07-29T07:10:23;1.02;;;1.02;;
10052;SDS011;52418;53.134;8.236;2022-07-29T07:12:49;1.08;;;1.08;;
10052;SDS011;52418;53.134;8.236;2022-07-29T07:15:14;1.10;;;1.10;;
10052;SDS011;52418;53.134;8.236;2022-07-29T07:17:39;1.30;;;1.30;;
10052;SDS011;52418;53.134;8.236;2022-07-29T07:20:05;1.10;;;1.10;;
10052;SDS011;52418;53.134;8.236;2022-07-29T07:22:30;1.05;;;1.05;;
10052;SDS011;52418;53.134;8.236;2022-07-29T07:24:55;1.10;;;1.10;;
10052;SDS011;52418;53.134;8.236;2022-07-29T07:27:21;1.20;;;1.20;;
10052;SDS011;52418;53.134;8.236;2022-07-29T07:29:46;1.10;;;1.10;;
10052;SDS011;52418;53.134;8.236;2022-07-29T07:32:11;1.10;;;1.10;;
10052;SDS011;52418;53.134;8.236;2022-07-29T07:34:38;1.10;;;1.10;;
10052;SDS011;52418;53.134;8.236;2022-07-29T07:37:03;1.00;;;1.00;;
10052;SDS011;52418;53.134;8.236;2022-07-29T07:39:28;1.10;;;1.10;;
10052;SDS011;52418;53.134;8.236;2022-07-29T07:41:53;1.10;;;1.10;;
10052;SDS011;52418;53.134;8.236;2022-07-29T07:44:19;1.00;;;1.00;;
10052;SDS011;52418;53.134;8.236;2022-07-29T07:46:44;1.00;;;1.00;;
10052;SDS011;52418;53.134;8.236;2022-07-29T07:49:10;1.10;;;1.10;;
10052;SDS011;52418;53.134;8.236;2022-07-29T07:51:35;1.20;;;1.20;;
10052;SDS011;52418;53.134;8.236;2022-07-29T07:54:00;1.00;;;1.00;;
10052;SDS011;52418;53.134;8.236;2022-07-29T07:56:25;1.08;;;1.08;;
10052;SDS011;52418;53.134;8.236;2022-07-29T07:58:51;1.00;;;1.00;;
10052;SDS011;52418;53.134;8.236;2022-07-29T08:01:16;1.10;;;1.10;;
10052;SDS011;52418;53.134;8.236;2022-07-29T08:03:43;1.10;;;1.10;;
10052;SDS011;52418;53.134;8.236;2022-07-29T08:06:09;1.30;;;1.30;;
10052;SDS011;52418;53.134;8.236;2022-07-29T08:08:34;1.20;;;1.20;;
10052;SDS011;52418;53.134;8.236;2022-07-29T08:10:59;1.20;;;1.20;;
10052;SDS011;52418;53.134;8.236;2022-07-29T08:13:26;1.20;;;1.20;;
10052;SDS011;52418;53.134;8.236;2022-07-29T08:15:53;1.20;;;1.20;;
10052;SDS011;52418;53.134;8.236;2022-07-29T08:18:25;1.10;;;1.10;;
10052;SDS011;52418;53.134;8.236;2022-07-29T08:20:51;1.10;;;1.10;;
10052;SDS011;52418;53.134;8.236;2022-07-29T08:23:16;1.20;;;1.20;;
10052;SDS011;52418;53.134;8.236;2022-07-29T08:25:43;1.10;;;1.10;;
10052;SDS011;52418;53.134;8.236;2022-07-29T08:28:09;1.15;;;1.15;;
10052;SDS011;52418;53.134;8.236;2022-07-29T08:30:34;1.10;;;1.10;;
10052;SDS011;52418;53.134;8.236;2022-07-29T08:32:59;1.20;;;1.20;;
10052;SDS011;52418;53.134;8.236;2022-07-29T08:35:24;1.20;;;1.20;;
10052;SDS011;52418;53.134;8.236;2022-07-29T08:37:50;1.10;;;1.10;;
10052;SDS011;52418;53.134;8.236;2022-07-29T08:40:15;1.10;;;1.10;;
10052;SDS011;52418;53.134;8.236;2022-07-29T08:42:41;1.00;;;1.00;;
10052;SDS011;52418;53.134;8.236;2022-07-29T08:45:06;1.00;;;1.00;;
10052;SDS011;52418;53.134;8.236;2022-07-29T08:47:31;1.00;;;1.00;;
10052;SDS011;52418;53.134;8.236;2022-07-29T08:49:57;1.17;;;1.17;;
10052;SDS011;52418;53.134;8.236;2022-07-29T08:52:24;1.02;;;1.02;;
10052;SDS011;52418;53.134;8.236;2022-07-29T08:54:49;1.10;;;1.10;;
10052;SDS011;52418;53.134;8.236;2022-07-29T08:57:17;1.10;;;1.10;;
10052;SDS011;52418;53.134;8.236;2022-07-29T08:59:42;1.00;;;1.00;;
10052;SDS011;52418;53.134;8.236;2022-07-29T09:02:09;1.00;;;1.00;;
10052;SDS011;52418;53.134;8.236;2022-07-29T09:04:37;1.00;;;1.00;;
10052;SDS011;52418;53.134;8.236;2022-07-29T09:07:03;1.00;;;1.00;;
10052;SDS011;52418;53.134;8.236;2022-07-29T09:09:29;1.10;;;1.10;;
10052;SDS011;52418;53.134;8.236;2022-07-29T09:11:54;1.08;;;1.08;;
10052;SDS011;52418;53.134;8.236;2022-07-29T09:14:19;1.10;;;1.10;;
10052;SDS011;52418;53.134;8.236;2022-07-29T09:16:49;1.00;;;1.00;;
10052;SDS011;52418;53.134;8.236;2022-07-29T09:19:25;1.10;;;1.10;;
10052;SDS011;52418;53.134;8.236;2022-07-29T09:21:51;1.10;;;1.10;;
10052;SDS011;52418;53.134;8.236;2022-07-29T09:24:46;1.15;;;1.15;;
10052;SDS011;52418;53.134;8.236;2022-07-29T09:27:21;1.15;;;1.15;;
10052;SDS011;52418;53.134;8.236;2022-07-29T09:29:48;1.20;;;1.20;;
10052;SDS011;52418;53.134;8.236;2022-07-29T09:32:19;1.10;;;1.10;;
10052;SDS011;52418;53.134;8.236;2022-07-29T09:34:44;1.10;;;1.10;;
10052;SDS011;52418;53.134;8.236;2022-07-29T09:37:10;1.10;;;1.10;;
10052;SDS011;52418;53.134;8.236;2022-07-29T09:39:37;1.10;;;1.10;;
10052;SDS011;52418;53.134;8.236;2022-07-29T09:42:04;1.10;;;1.10;;
10052;SDS011;52418;53.134;8.236;2022-07-29T09:44:48;1.20;;;1.20;;
10052;SDS011;52418;53.134;8.236;2022-07-29T09:47:15;1.10;;;1.10;;
10052;SDS011;52418;53.134;8.236;2022-07-29T09:49:51;1.20;;;1.20;;
10052;SDS011;52418;53.134;8.236;2022-07-29T09:52:16;1.10;;;1.10;;
10052;SDS011;52418;53.134;8.236;2022-07-29T09:54:42;1.20;;;1.20;;
10052;SDS011;52418;53.134;8.236;2022-07-29T09:57:07;1.30;;;1.30;;
10052;SDS011;52418;53.134;8.236;2022-07-29T09:59:37;1.20;;;1.20;;
10052;SDS011;52418;53.134;8.236;2022-07-29T10:02:10;1.23;;;1.23;;
10052;SDS011;52418;53.134;8.236;2022-07-29T10:04:36;1.10;;;1.10;;
10052;SDS011;52418;53.134;8.236;2022-07-29T10:07:02;1.23;;;1.23;;
10052;SDS011;52418;53.134;8.236;2022-07-29T10:09:30;1.10;;;1.10;;
10052;SDS011;52418;53.134;8.236;2022-07-29T10:12:13;1.25;;;1.25;;
10052;SDS011;52418;53.134;8.236;2022-07-29T10:14:39;1.30;;;1.30;;
10052;SDS011;52418;53.134;8.236;2022-07-29T10:17:05;1.30;;;1.30;;
10052;SDS011;52418;53.134;8.236;2022-07-29T10:19:31;1.15;;;1.15;;
10052;SDS011;52418;53.134;8.236;2022-07-29T10:22:01;1.20;;;1.20;;
10052;SDS011;52418;53.134;8.236;2022-07-29T10:24:27;1.20;;;1.20;;
10052;SDS011;52418;53.134;8.236;2022-07-29T10:26:57;1.13;;;1.13;;
10052;SDS011;52418;53.134;8.236;2022-07-29T10:29:22;1.20;;;1.20;;
10052;SDS011;52418;53.134;8.236;2022-07-29T10:32:00;1.20;;;1.20;;
10052;SDS011;52418;53.134;8.236;2022-07-29T10:42:47;1.20;;;1.20;;
10052;SDS011;52418;53.134;8.236;2022-07-29T10:45:15;1.20;;;1.20;;
10052;SDS011;52418;53.134;8.236;2022-07-29T10:47:41;1.20;;;1.20;;
10052;SDS011;52418;53.134;8.236;2022-07-29T10:50:09;1.23;;;1.23;;
10052;SDS011;52418;53.134;8.236;2022-07-29T10:55:57;1.20;;;1.20;;
10052;SDS011;52418;53.134;8.236;2022-07-29T11:00:40;1.20;;;1.20;;
10052;SDS011;52418;53.134;8.236;2022-07-29T11:03:05;1.20;;;1.20;;
10052;SDS011;52418;53.134;8.236;2022-07-29T11:05:53;1.23;;;1.23;;
10052;SDS011;52418;53.134;8.236;2022-07-29T11:08:19;1.20;;;1.20;;
10052;SDS011;52418;53.134;8.236;2022-07-29T11:10:50;1.13;;;1.13;;
10052;SDS011;52418;53.134;8.236;2022-07-29T11:15:59;1.20;;;1.20;;
10052;SDS011;52418;53.134;8.236;2022-07-29T11:18:25;1.30;;;1.30;;
10052;SDS011;52418;53.134;8.236;2022-07-29T11:20:52;1.30;;;1.30;;
10052;SDS011;52418;53.134;8.236;2022-07-29T11:28:34;1.20;;;1.20;;
10052;SDS011;52418;53.134;8.236;2022-07-29T11:31:01;1.30;;;1.30;;
10052;SDS011;52418;53.134;8.236;2022-07-29T11:36:10;1.33;;;1.33;;
10052;SDS011;52418;53.134;8.236;2022-07-29T11:38:35;1.20;;;1.20;;
10052;SDS011;52418;53.134;8.236;2022-07-29T11:46:18;1.27;;;1.27;;
10052;SDS011;52418;53.134;8.236;2022-07-29T11:48:43;1.30;;;1.30;;
10052;SDS011;52418;53.134;8.236;2022-07-29T11:51:10;1.25;;;1.25;;
10052;SDS011;52418;53.134;8.236;2022-07-29T11:53:36;1.30;;;1.30;;
10052;SDS011;52418;53.134;8.236;2022-07-29T11:56:02;1.20;;;1.20;;
10052;SDS011;52418;53.134;8.236;2022-07-29T11:58:29;1.20;;;1.20;;
10052;SDS011;52418;53.134;8.236;2022-07-29T12:00:54;1.20;;;1.20;;
10052;SDS011;52418;53.134;8.236;2022-07-29T12:03:24;1.50;;;1.40;;
10052;SDS011;52418;53.134;8.236;2022-07-29T12:05:49;1.30;;;1.30;;
10052;SDS011;52418;53.134;8.236;2022-07-29T12:10:43;1.20;;;1.20;;
10052;SDS011;52418;53.134;8.236;2022-07-29T12:13:09;1.30;;;1.30;;
10052;SDS011;52418;53.134;8.236;2022-07-29T12:15:35;1.30;;;1.30;;
10052;SDS011;52418;53.134;8.236;2022-07-29T12:18:09;1.27;;;1.27;;
10052;SDS011;52418;53.134;8.236;2022-07-29T12:20:35;1.30;;;1.30;;
10052;SDS011;52418;53.134;8.236;2022-07-29T12:23:04;1.10;;;1.10;;
10052;SDS011;52418;53.134;8.236;2022-07-29T12:25:33;1.20;;;1.20;;
10052;SDS011;52418;53.134;8.236;2022-07-29T12:28:02;1.20;;;1.20;;
10052;SDS011;52418;53.134;8.236;2022-07-29T12:31:01;1.20;;;1.20;;
10052;SDS011;52418;53.134;8.236;2022-07-29T12:35:50;1.30;;;1.30;;
10052;SDS011;52418;53.134;8.236;2022-07-29T12:38:16;1.30;;;1.30;;
10052;SDS011;52418;53.134;8.236;2022-07-29T12:40:42;1.50;;;1.40;;
10052;SDS011;52418;53.134;8.236;2022-07-29T12:43:20;1.30;;;1.30;;
10052;SDS011;52418;53.134;8.236;2022-07-29T12:45:47;1.20;;;1.20;;
10052;SDS011;52418;53.134;8.236;2022-07-29T12:48:12;1.30;;;1.30;;
10052;SDS011;52418;53.134;8.236;2022-07-29T12:50:54;1.27;;;1.27;;
10052;SDS011;52418;53.134;8.236;2022-07-29T12:53:20;1.30;;;1.30;;
10052;SDS011;52418;53.134;8.236;2022-07-29T12:55:46;1.20;;;1.20;;
10052;SDS011;52418;53.134;8.236;2022-07-29T12:58:35;1.20;;;1.20;;
10052;SDS011;52418;53.134;8.236;2022-07-29T13:01:03;1.30;;;1.30;;
10052;SDS011;52418;53.134;8.236;2022-07-29T13:03:28;1.20;;;1.20;;
10052;SDS011;52418;53.134;8.236;2022-07-29T13:05:54;1.20;;;1.20;;
10052;SDS011;52418;53.134;8.236;2022-07-29T13:08:19;1.13;;;1.13;;
10052;SDS011;52418;53.134;8.236;2022-07-29T13:10:45;1.20;;;1.20;;
10052;SDS011;52418;53.134;8.236;2022-07-29T13:13:11;1.10;;;1.10;;
10052;SDS011;52418;53.134;8.236;2022-07-29T13:15:40;1.20;;;1.20;;
10052;SDS011;52418;53.134;8.236;2022-07-29T13:18:25;1.20;;;1.20;;
10052;SDS011;52418;53.134;8.236;2022-07-29T13:20:51;1.15;;;1.15;;
10052;SDS011;52418;53.134;8.236;2022-07-29T13:23:16;1.10;;;1.10;;
10052;SDS011;52418;53.134;8.236;2022-07-29T13:25:41;1.10;;;1.10;;
10052;SDS011;52418;53.134;8.236;2022-07-29T13:28:06;1.10;;;1.10;;
10052;SDS011;52418;53.134;8.236;2022-07-29T13:30:31;1.20;;;1.20;;
10052;SDS011;52418;53.134;8.236;2022-07-29T13:32:56;1.10;;;1.10;;
10052;SDS011;52418;53.134;8.236;2022-07-29T13:35:22;1.10;;;1.10;;
10052;SDS011;52418;53.134;8.236;2022-07-29T13:37:47;1.15;;;1.15;;
10052;SDS011;52418;53.134;8.236;2022-07-29T13:40:12;1.17;;;1.17;;
10052;SDS011;52418;53.134;8.236;2022-07-29T13:42:38;1.02;;;1.02;;
10052;SDS011;52418;53.134;8.236;2022-07-29T13:45:04;1.20;;;1.20;;
10052;SDS011;52418;53.134;8.236;2022-07-29T13:47:29;1.30;;;1.30;;
10052;SDS011;52418;53.134;8.236;2022-07-29T13:49:55;1.13;;;1.13;;
10052;SDS011;52418;53.134;8.236;2022-07-29T13:52:20;1.20;;;1.20;;
10052;SDS011;52418;53.134;8.236;2022-07-29T13:54:46;1.20;;;1.20;;
10052;SDS011;52418;53.134;8.236;2022-07-29T13:57:11;1.10;;;1.10;;
10052;SDS011;52418;53.134;8.236;2022-07-29T13:59:37;1.10;;;1.10;;
10052;SDS011;52418;53.134;8.236;2022-07-29T14:02:02;1.17;;;1.17;;
10052;SDS011;52418;53.134;8.236;2022-07-29T14:04:27;1.10;;;1.10;;
10052;SDS011;52418;53.134;8.236;2022-07-29T14:06:53;1.20;;;1.20;;
10052;SDS011;52418;53.134;8.236;2022-07-29T14:09:18;1.20;;;1.20;;
10052;SDS011;52418;53.134;8.236;2022-07-29T14:11:43;1.10;;;1.10;;
10052;SDS011;52418;53.134;8.236;2022-07-29T14:14:08;1.20;;;1.20;;
10052;SDS011;52418;53.134;8.236;2022-07-29T14:16:35;1.10;;;1.10;;
10052;SDS011;52418;53.134;8.236;2022-07-29T14:19:00;1.10;;;1.10;;
10052;SDS011;52418;53.134;8.236;2022-07-29T14:21:25;1.13;;;1.13;;
10052;SDS011;52418;53.134;8.236;2022-07-29T14:23:50;1.20;;;1.20;;
10052;SDS011;52418;53.134;8.236;2022-07-29T14:26:16;1.10;;;1.10;;
10052;SDS011;52418;53.134;8.236;2022-07-29T14:28:42;1.17;;;1.17;;
10052;SDS011;52418;53.134;8.236;2022-07-29T14:31:08;1.20;;;1.20;;
10052;SDS011;52418;53.134;8.236;2022-07-29T14:33:33;1.20;;;1.20;;
10052;SDS011;52418;53.134;8.236;2022-07-29T14:35:58;1.10;;;1.10;;
10052;SDS011;52418;53.134;8.236;2022-07-29T14:38:24;1.00;;;1.00;;
10052;SDS011;52418;53.134;8.236;2022-07-29T14:40:49;1.10;;;1.10;;
10052;SDS011;52418;53.134;8.236;2022-07-29T14:43:14;1.10;;;1.10;;
10052;SDS011;52418;53.134;8.236;2022-07-29T14:45:39;1.10;;;1.10;;
10052;SDS011;52418;53.134;8.236;2022-07-29T14:48:05;1.10;;;1.10;;
10052;SDS011;52418;53.134;8.236;2022-07-29T14:50:30;1.10;;;1.10;;
10052;SDS011;52418;53.134;8.236;2022-07-29T14:52:55;1.10;;;1.10;;
10052;SDS011;52418;53.134;8.236;2022-07-29T14:55:21;1.10;;;1.10;;
10052;SDS011;52418;53.134;8.236;2022-07-29T14:57:46;1.17;;;1.17;;
10052;SDS011;52418;53.134;8.236;2022-07-29T15:00:11;1.10;;;1.10;;
10052;SDS011;52418;53.134;8.236;2022-07-29T15:02:37;1.10;;;1.10;;
10052;SDS011;52418;53.134;8.236;2022-07-29T15:05:02;1.00;;;1.00;;
10052;SDS011;52418;53.134;8.236;2022-07-29T15:07:27;1.10;;;1.10;;
10052;SDS011;52418;53.134;8.236;2022-07-29T15:09:53;1.10;;;1.10;;
10052;SDS011;52418;53.134;8.236;2022-07-29T15:12:18;1.10;;;1.10;;
10052;SDS011;52418;53.134;8.236;2022-07-29T15:14:43;1.00;;;1.00;;
10052;SDS011;52418;53.134;8.236;2022-07-29T15:17:08;1.02;;;1.02;;
10052;SDS011;52418;53.134;8.236;2022-07-29T15:19:34;1.00;;;1.00;;
10052;SDS011;52418;53.134;8.236;2022-07-29T15:21:59;1.10;;;1.10;;
10052;SDS011;52418;53.134;8.236;2022-07-29T15:24:24;1.05;;;1.05;;